Westchester County Airport
KHPN : now visible

Airfield :











YOU CAN JOIN US ON...

 
LOGIN :

Register | Disclaimer

   EN    FR    IT 

 









Legend :    VFR   Marginal VFR   IFR   Intensive IFR   Very Intensive IFR
Visi :
Ceiling :
>= 8 km
>= 3000ft
5 to 8 km
1000 to 3000 ft
1500m to 5 km
500 to 1000 ft
800 to 1500m
200 to 500 ft
< 800m
< 200 ft
Symbols :   Thunderstorms  Fog  Heavy snow  Heavy precipitations  Wind > 20 kt






- Airport Elevation : 439 ft
- IATA code : HPN


KHPN - Westchester County

CURRENT METAR :
  • 220111Z 17004KT 1/4SM R16/1600V2000FT FG VV001 18/17 A3023 RMK AO2 T01780172

EXPIRED METARs :
  • 220056Z 18004KT 1/4SM R16/2200V2800FT FG VV001 18/17 A3023 RMK AO2 SLP234 T01780172
  • 220042Z 16005KT 1/4SM R16/4000VP6000FT FG VV002 18/17 A3023 RMK AO2 T01780172
  • 220029Z 15003KT 1SM R16/P6000FT BR VV002 18/17 A3023 RMK AO2 T01780172
  • 212356Z 12003KT 4SM BR VV004 18/17 A3023 RMK AO2 SLP235 T01780167 10194 20172 53007
  • 212308Z 15003KT 10SM BKN006 OVC015 18/17 A3022 RMK AO2 T01780167
  • 212256Z 16004KT 10SM FEW007 BKN015 BKN035 17/16 A3022 RMK AO2 SLP232 T01720161

TAF KHPN
Valid from the 22 at 00:00 until the 23 at 00:00 UTC


212341Z 2200/2224 18004KT P6SM BKN006 BKN250
FM220200 00000KT 1/2SM FG BKN004 OVC015
FM220300 00000KT 1/4SM FG OVC002
FM221000 30002KT 1/2SM FG OVC004
FM221200 33003KT 3SM BR BKN006
FM221400 01003KT 6SM BR BKN012
FM221700 06003KT P6SM BKN035 AMD NOT SKED
KZBW FIR / North America



MET'MAP, your aeronautical weather chart ! - Copyright ORBIFLY December 2007 - Disclaimer

ORBIFLY MET'MAP TEAM :

Programming & Development : Alexandra Zaïnal
Concept & original design : Baudouin d'Aumeries
Assistance for programming : Marc-Olivier Méhu
Technical & hardware support : Manuel Goepfert

Contact : metmap@orbifly.com




SOURCES & CREDITS :

   NOAA       Earth
Advisory